Time;durP1;ratioP1;P1;durP2;ratioP2;P2;SDS_P1;SDS_P2;PMS_P1;PMS_P2;Temp;Humidity;BMP_temperature;BMP_pressure;BME280_temperature;BME280_humidity;BME280_pressure;Samples;Min_cycle;Max_cycle;Signal;HPM_P1;HPM_P2
2024/04/03 00:00:05;;;;;;;8.07;2.50;;;11.90;99.90;;;;;;5048361;28;20176;-84
2024/04/03 00:02:30;;;;;;;7.33;2.23;;;11.80;99.90;;;;;;5048034;28;20267;-86
2024/04/03 00:04:56;;;;;;;8.50;2.87;;;11.80;99.90;;;;;;5048994;28;20239;-85
2024/04/03 00:07:22;;;;;;;5.87;2.53;;;11.80;99.90;;;;;;5047573;28;20656;-89
2024/04/03 00:09:47;;;;;;;7.77;2.43;;;11.80;99.90;;;;;;5047371;28;20229;-87
2024/04/03 00:12:14;;;;;;;6.63;2.50;;;11.80;99.90;;;;;;5046808;28;20694;-87
2024/04/03 00:14:40;;;;;;;6.33;2.13;;;11.80;99.90;;;;;;5014238;28;20174;-85
2024/04/03 00:17:05;;;;;;;5.77;2.00;;;11.80;99.90;;;;;;5046311;28;20206;-86
2024/04/03 00:19:32;;;;;;;4.37;1.93;;;11.90;99.90;;;;;;5047040;28;20172;-85
2024/04/03 00:21:57;;;;;;;6.23;2.37;;;11.90;99.90;;;;;;5048566;28;20188;-87
2024/04/03 00:24:23;;;;;;;8.70;2.53;;;11.90;99.90;;;;;;5048174;28;20179;-87
2024/04/03 00:26:49;;;;;;;5.57;2.50;;;11.80;99.90;;;;;;5047007;28;20175;-89
2024/04/03 00:29:15;;;;;;;4.30;2.10;;;11.80;99.90;;;;;;5048121;28;20250;-88
2024/04/03 00:31:40;;;;;;;6.67;2.30;;;11.80;99.90;;;;;;5047338;28;20201;-87
2024/04/03 00:34:06;;;;;;;6.40;2.30;;;11.90;99.90;;;;;;5046416;28;20215;-85
2024/04/03 00:36:32;;;;;;;8.57;2.20;;;11.90;99.90;;;;;;5047140;28;20238;-85
2024/04/03 00:38:57;;;;;;;5.67;2.30;;;11.90;99.90;;;;;;5047447;28;20176;-88
2024/04/03 00:41:23;;;;;;;7.40;2.30;;;12.00;99.90;;;;;;5047092;28;20174;-86
2024/04/03 00:43:49;;;;;;;5.50;1.77;;;12.00;99.90;;;;;;5046951;28;20201;-85
2024/04/03 00:46:16;;;;;;;6.67;2.40;;;11.90;99.90;;;;;;5047967;28;20525;-87
2024/04/03 00:48:45;;;;;;;6.17;2.07;;;11.90;99.90;;;;;;5048001;28;20170;-87
2024/04/03 00:51:10;;;;;;;7.43;2.60;;;11.90;99.90;;;;;;5046792;28;20664;-87
2024/04/03 00:53:38;;;;;;;5.93;2.30;;;11.90;99.90;;;;;;5047063;28;20178;-86
2024/04/03 00:56:07;;;;;;;7.60;2.40;;;11.90;99.90;;;;;;5047137;28;20188;-85
2024/04/03 00:58:34;;;;;;;5.60;2.30;;;11.90;99.90;;;;;;5046252;28;20176;-87
2024/04/03 01:01:00;;;;;;;5.73;2.07;;;11.90;99.90;;;;;;5045845;28;20190;-86
2024/04/03 01:03:26;;;;;;;5.73;2.17;;;11.90;99.90;;;;;;5046071;28;20192;-87
2024/04/03 01:06:01;;;;;;;8.70;2.10;;;11.90;99.90;;;;;;5046312;28;20174;-85
2024/04/03 01:08:28;;;;;;;6.83;2.30;;;11.90;99.90;;;;;;5047048;28;20177;-87
2024/04/03 01:10:54;;;;;;;8.57;2.10;;;11.90;99.90;;;;;;5046400;28;20209;-84
2024/04/03 01:13:20;;;;;;;5.50;2.00;;;12.00;99.90;;;;;;5046240;28;20201;-86
2024/04/03 01:15:45;;;;;;;7.63;2.50;;;12.00;99.90;;;;;;5015174;28;20177;-86
2024/04/03 01:18:11;;;;;;;6.83;2.17;;;12.00;99.90;;;;;;5046910;28;20178;-84
2024/04/03 01:20:38;;;;;;;4.30;2.20;;;12.10;99.90;;;;;;5045971;28;20253;-86
2024/04/03 01:23:05;;;;;;;5.00;2.50;;;12.20;99.90;;;;;;5046057;28;20178;-86
2024/04/03 01:25:30;;;;;;;6.87;2.37;;;12.20;99.90;;;;;;5046781;28;20228;-85
2024/04/03 01:27:56;;;;;;;7.43;2.30;;;12.10;99.90;;;;;;5045942;28;20189;-85
2024/04/03 01:30:22;;;;;;;8.13;2.60;;;12.10;99.90;;;;;;5047096;28;20626;-87
2024/04/03 01:32:47;;;;;;;7.77;2.53;;;12.00;99.90;;;;;;5014999;28;20670;-87
2024/04/03 01:35:13;;;;;;;7.83;3.00;;;12.10;99.90;;;;;;5046917;28;20713;-87
2024/04/03 01:37:39;;;;;;;4.73;2.10;;;12.10;99.90;;;;;;5045791;28;20659;-86
2024/04/03 01:40:05;;;;;;;6.80;2.80;;;12.20;99.90;;;;;;5047058;28;20235;-86
2024/04/03 01:42:31;;;;;;;7.43;2.27;;;12.20;99.90;;;;;;5048152;28;20167;-87
2024/04/03 01:44:56;;;;;;;7.17;2.50;;;12.30;99.90;;;;;;5049648;28;20244;-87
2024/04/03 01:47:22;;;;;;;5.67;2.10;;;12.20;99.90;;;;;;5016336;28;20177;-85
2024/04/03 01:49:53;;;;;;;8.27;2.50;;;12.20;99.90;;;;;;5048358;28;20201;-87
2024/04/03 01:52:19;;;;;;;5.23;2.00;;;12.10;99.90;;;;;;5046322;28;20242;-85
2024/04/03 01:54:44;;;;;;;9.33;2.60;;;12.10;99.90;;;;;;5046234;28;20242;-88
2024/04/03 01:57:10;;;;;;;9.73;4.20;;;12.10;99.90;;;;;;5046012;28;20250;-85
2024/04/03 01:59:36;;;;;;;7.10;2.47;;;12.10;99.90;;;;;;5046034;28;20229;-85
2024/04/03 02:02:01;;;;;;;9.00;2.87;;;12.00;99.90;;;;;;5067493;28;20185;-83
2024/04/03 02:04:27;;;;;;;6.90;2.57;;;12.10;99.90;;;;;;5071824;28;20211;-85
2024/04/03 02:06:53;;;;;;;6.63;2.50;;;12.10;99.90;;;;;;5070689;28;20184;-84
2024/04/03 02:09:18;;;;;;;9.50;2.97;;;12.00;99.90;;;;;;5068327;28;20174;-85
2024/04/03 02:11:47;;;;;;;6.97;2.30;;;12.00;99.90;;;;;;5061101;28;20903;-85
2024/04/03 02:14:16;;;;;;;6.03;2.43;;;11.90;99.90;;;;;;5055587;28;20625;-85
2024/04/03 02:17:16;;;;;;;5.67;2.33;;;11.90;99.90;;;;;;5050481;28;20174;-84
2024/04/03 02:19:42;;;;;;;7.27;2.83;;;12.00;99.90;;;;;;5019566;28;20170;-85
2024/04/03 02:22:07;;;;;;;5.53;2.30;;;11.90;99.90;;;;;;5051593;28;20167;-87
2024/04/03 02:24:33;;;;;;;8.47;2.53;;;11.90;99.90;;;;;;5050543;28;20183;-85
2024/04/03 02:26:59;;;;;;;6.93;2.30;;;11.90;99.90;;;;;;5050678;28;20277;-86
2024/04/03 02:29:24;;;;;;;7.80;2.90;;;11.90;99.90;;;;;;5050213;28;20172;-85
2024/04/03 02:31:50;;;;;;;5.63;2.43;;;11.80;99.90;;;;;;5049043;28;20575;-85
2024/04/03 02:34:16;;;;;;;7.73;2.53;;;11.80;99.90;;;;;;5016832;28;20174;-86
2024/04/03 02:36:43;;;;;;;6.43;2.37;;;11.70;99.90;;;;;;5050043;28;20185;-86
2024/04/03 02:39:09;;;;;;;8.27;2.97;;;11.70;99.90;;;;;;5049143;28;20758;-85
2024/04/03 02:41:34;;;;;;;10.13;2.67;;;11.70;99.90;;;;;;5047597;28;20174;-86
2024/04/03 02:44:00;;;;;;;4.77;2.20;;;11.70;99.90;;;;;;5048185;28;20174;-85
2024/04/03 02:46:26;;;;;;;6.37;2.10;;;11.70;99.90;;;;;;5048225;28;20492;-84
2024/04/03 02:48:51;;;;;;;7.57;2.83;;;11.70;99.90;;;;;;5016261;28;20624;-85
2024/04/03 02:51:17;;;;;;;6.57;2.40;;;11.70;99.90;;;;;;5048477;28;20225;-84
2024/04/03 02:53:43;;;;;;;7.93;2.50;;;11.70;99.90;;;;;;5048508;28;20589;-85
2024/04/03 02:56:10;;;;;;;7.13;2.50;;;11.70;99.90;;;;;;5047793;28;20239;-84
2024/04/03 02:58:36;;;;;;;5.87;2.20;;;11.70;99.90;;;;;;5048812;28;20182;-85
2024/04/03 03:01:04;;;;;;;9.97;2.60;;;11.70;99.90;;;;;;5016018;28;20202;-85
2024/04/03 03:03:30;;;;;;;5.93;2.50;;;11.60;99.90;;;;;;5048859;28;20197;-87
2024/04/03 03:05:57;;;;;;;7.57;2.47;;;11.70;99.90;;;;;;5017310;28;20186;-86
2024/04/03 03:08:28;;;;;;;5.20;2.03;;;11.70;99.90;;;;;;5047779;28;20175;-85
2024/04/03 03:10:54;;;;;;;8.17;2.57;;;11.70;99.90;;;;;;5047280;28;20172;-85
2024/04/03 03:13:20;;;;;;;4.40;2.00;;;11.70;99.90;;;;;;5048112;28;20196;-87
2024/04/03 03:15:57;;;;;;;6.40;2.30;;;11.60;99.90;;;;;;5048698;28;20171;-84
2024/04/03 03:18:29;;;;;;;8.40;2.00;;;11.60;99.90;;;;;;5047996;28;20186;-84
2024/04/03 03:20:55;;;;;;;7.20;2.63;;;11.60;99.90;;;;;;5048878;28;20193;-82
2024/04/03 03:23:21;;;;;;;6.13;2.07;;;11.50;99.90;;;;;;5048471;28;20167;-85
2024/04/03 03:25:48;;;;;;;5.70;2.23;;;11.50;99.90;;;;;;5016047;28;20224;-85
2024/04/03 03:28:15;;;;;;;5.27;1.90;;;11.60;99.90;;;;;;5016827;28;20183;-86
2024/04/03 03:30:45;;;;;;;6.07;1.93;;;11.60;99.90;;;;;;5048611;28;20202;-83
2024/04/03 03:33:10;;;;;;;6.70;2.20;;;11.60;99.90;;;;;;5047906;28;20221;-87
2024/04/03 03:35:36;;;;;;;6.90;2.10;;;11.60;99.90;;;;;;5048315;28;20202;-86
2024/04/03 03:38:02;;;;;;;5.97;1.93;;;11.70;99.90;;;;;;5048511;28;20618;-85
2024/04/03 03:40:27;;;;;;;4.43;1.90;;;11.60;99.90;;;;;;5047469;28;20663;-85
2024/04/03 03:42:53;;;;;;;5.30;2.30;;;11.50;99.90;;;;;;5048224;28;20245;-87
2024/04/03 03:45:20;;;;;;;4.97;1.60;;;11.50;99.90;;;;;;5047854;28;20589;-85
2024/04/03 03:47:46;;;;;;;4.43;1.60;;;11.50;99.90;;;;;;5047116;28;20180;-89
2024/04/03 03:52:57;;;;;;;3.73;1.70;;;11.50;99.90;;;;;;5015645;28;20229;-85
2024/04/03 03:55:28;;;;;;;5.17;2.00;;;11.50;99.90;;;;;;5048258;28;20603;-86
2024/04/03 03:57:54;;;;;;;4.67;1.47;;;11.50;99.90;;;;;;5048440;28;20277;-86
2024/04/03 04:00:20;;;;;;;3.60;1.30;;;11.50;99.90;;;;;;5047638;28;20682;-87
2024/04/03 04:02:45;;;;;;;3.50;1.60;;;11.40;99.90;;;;;;5047458;28;20201;-86
2024/04/03 04:05:11;;;;;;;4.57;1.77;;;11.50;99.90;;;;;;5047215;28;20191;-84
2024/04/03 04:07:38;;;;;;;5.77;1.30;;;11.40;99.90;;;;;;5047234;28;20662;-86
2024/04/03 04:10:04;;;;;;;4.37;1.70;;;11.40;99.90;;;;;;5045525;28;20170;-85
2024/04/03 04:12:30;;;;;;;6.20;1.73;;;11.40;99.90;;;;;;5046471;28;20710;-84
2024/04/03 04:14:56;;;;;;;4.90;1.33;;;11.50;99.90;;;;;;5048131;28;20170;-84
2024/04/03 04:17:22;;;;;;;4.80;1.63;;;11.50;99.90;;;;;;5045861;28;20166;-86
2024/04/03 04:19:52;;;;;;;3.87;1.40;;;11.50;99.90;;;;;;5016102;28;20177;-87
2024/04/03 04:22:17;;;;;;;3.80;1.30;;;11.40;99.90;;;;;;5047311;28;20726;-87
2024/04/03 04:24:46;;;;;;;3.17;1.57;;;11.40;99.90;;;;;;5013221;28;20265;-87
2024/04/03 04:27:12;;;;;;;2.67;1.17;;;11.40;99.90;;;;;;5045960;28;20257;-84
2024/04/03 04:29:42;;;;;;;3.90;1.47;;;11.40;99.90;;;;;;5046644;28;20642;-84
2024/04/03 04:32:11;;;;;;;3.37;1.23;;;11.40;99.90;;;;;;5046148;28;20229;-85
2024/04/03 04:34:42;;;;;;;2.53;1.20;;;11.50;99.90;;;;;;5015458;28;20170;-87
2024/04/03 04:37:08;;;;;;;1.83;1.23;;;11.40;99.90;;;;;;5047696;28;20678;-84
2024/04/03 04:39:35;;;;;;;3.70;1.53;;;11.40;99.90;;;;;;5047149;28;20193;-85
2024/04/03 04:42:01;;;;;;;3.57;1.50;;;11.40;99.90;;;;;;5045170;28;20178;-86
2024/04/03 04:44:26;;;;;;;4.30;1.47;;;11.40;99.90;;;;;;5047778;28;20636;-87
2024/04/03 04:46:54;;;;;;;6.77;1.30;;;11.40;99.90;;;;;;5046420;28;20188;-87
2024/04/03 04:49:21;;;;;;;5.53;1.70;;;11.30;99.90;;;;;;5046272;28;20194;-86
2024/04/03 04:51:47;;;;;;;5.00;1.50;;;11.30;99.90;;;;;;5047573;28;20252;-86
2024/04/03 04:54:17;;;;;;;4.90;1.70;;;11.40;99.90;;;;;;5047136;28;20226;-84
2024/04/03 04:56:47;;;;;;;2.57;1.33;;;11.30;99.90;;;;;;5047187;28;20174;-84
2024/04/03 04:59:16;;;;;;;4.40;1.63;;;11.40;99.90;;;;;;5014370;28;20220;-84
2024/04/03 05:01:42;;;;;;;5.07;1.73;;;11.40;99.90;;;;;;5046478;28;20221;-85
2024/04/03 05:04:10;;;;;;;2.33;1.30;;;11.40;99.90;;;;;;5013636;28;20213;-85
2024/04/03 05:06:35;;;;;;;4.03;1.27;;;11.40;99.90;;;;;;5046785;28;20196;-87
2024/04/03 05:09:03;;;;;;;3.20;1.30;;;11.30;99.90;;;;;;5014254;28;20226;-87
2024/04/03 05:11:30;;;;;;;3.70;1.47;;;11.20;99.90;;;;;;5026544;28;20215;-86
2024/04/03 05:13:55;;;;;;;4.13;1.40;;;11.30;99.90;;;;;;5069557;28;20163;-87
2024/04/03 05:16:24;;;;;;;4.07;1.50;;;11.20;99.90;;;;;;5068044;28;20198;-87
2024/04/03 05:18:52;;;;;;;2.70;1.30;;;11.20;99.90;;;;;;5065496;28;20194;-84
2024/04/03 05:21:22;;;;;;;4.63;1.50;;;11.20;99.90;;;;;;5061513;28;20185;-83
2024/04/03 05:23:47;;;;;;;5.17;1.70;;;11.30;99.90;;;;;;5051554;28;20181;-83
2024/04/03 05:26:20;;;;;;;3.53;1.77;;;11.30;99.90;;;;;;5047582;28;20250;-88
2024/04/03 05:28:46;;;;;;;5.07;1.90;;;11.30;99.90;;;;;;5046828;28;20170;-89
2024/04/03 05:31:17;;;;;;;5.57;1.67;;;11.30;99.90;;;;;;5046593;28;20639;-85
2024/04/03 05:33:43;;;;;;;3.33;1.50;;;11.30;99.90;;;;;;5047741;28;20185;-83
2024/04/03 05:36:10;;;;;;;5.27;1.70;;;11.30;99.90;;;;;;5050350;28;20188;-87
2024/04/03 05:38:38;;;;;;;5.40;1.70;;;11.40;99.90;;;;;;5049237;28;20170;-84
2024/04/03 05:41:04;;;;;;;4.27;1.60;;;11.40;99.90;;;;;;5017074;28;20501;-87
2024/04/03 05:43:31;;;;;;;4.17;1.80;;;11.40;99.90;;;;;;5016527;28;20174;-86
2024/04/03 05:45:57;;;;;;;3.70;1.30;;;11.30;99.90;;;;;;5049218;28;20578;-83
2024/04/03 05:48:24;;;;;;;4.33;1.60;;;11.40;99.90;;;;;;5048801;28;20631;-85
2024/04/03 05:51:04;;;;;;;3.83;1.70;;;11.40;99.90;;;;;;5049671;28;20184;-87
2024/04/03 05:53:30;;;;;;;4.63;1.73;;;11.30;99.90;;;;;;5016613;28;20228;-84
2024/04/03 05:55:58;;;;;;;2.63;1.33;;;11.40;99.90;;;;;;5050588;28;20179;-85
2024/04/03 05:58:24;;;;;;;5.13;1.60;;;11.40;99.90;;;;;;5050888;28;20553;-84
2024/04/03 06:00:55;;;;;;;5.40;1.73;;;11.40;99.90;;;;;;5052402;28;20292;-84
2024/04/03 06:03:20;;;;;;;3.17;1.50;;;11.50;99.90;;;;;;5019363;28;20175;-84
2024/04/03 06:05:58;;;;;;;3.70;1.53;;;11.50;99.90;;;;;;5050337;28;20201;-85
2024/04/03 06:08:25;;;;;;;4.77;1.80;;;11.50;99.90;;;;;;5017173;28;20205;-87
2024/04/03 06:10:52;;;;;;;3.30;1.33;;;11.60;99.90;;;;;;5050560;28;20242;-85
2024/04/03 06:13:17;;;;;;;4.37;1.60;;;11.50;99.90;;;;;;5014738;28;20790;-88
2024/04/03 06:15:44;;;;;;;4.13;1.53;;;11.50;99.90;;;;;;5047242;28;20178;-86
2024/04/03 06:18:11;;;;;;;3.13;1.30;;;11.50;99.90;;;;;;5047431;28;20224;-84
2024/04/03 06:20:37;;;;;;;4.50;1.47;;;11.50;99.90;;;;;;5047965;28;20689;-87
2024/04/03 06:23:03;;;;;;;3.73;1.60;;;11.50;99.90;;;;;;5047677;28;20177;-83
2024/04/03 06:25:28;;;;;;;3.70;1.37;;;11.40;99.90;;;;;;5006475;28;20227;-83
2024/04/03 06:27:54;;;;;;;3.40;1.53;;;11.40;99.90;;;;;;5004810;28;20493;-83
2024/04/03 06:30:22;;;;;;;2.90;1.60;;;11.40;99.90;;;;;;5038393;28;20172;-84
2024/04/03 06:32:47;;;;;;;3.47;1.80;;;11.40;99.90;;;;;;5000409;28;20211;-83
2024/04/03 06:35:13;;;;;;;1.80;1.37;;;11.40;99.90;;;;;;5050531;28;20656;-84
2024/04/03 06:37:40;;;;;;;3.07;1.60;;;11.50;99.90;;;;;;4998456;28;20179;-84
2024/04/03 06:40:10;;;;;;;5.13;1.63;;;11.50;99.90;;;;;;5012065;28;20170;-83
2024/04/03 06:42:36;;;;;;;3.90;1.70;;;11.50;99.90;;;;;;5025795;28;20279;-84
2024/04/03 06:45:03;;;;;;;3.20;1.27;;;11.60;99.90;;;;;;5032743;28;20224;-83
2024/04/03 06:47:29;;;;;;;3.67;1.77;;;11.60;99.90;;;;;;5061640;28;20182;-84
2024/04/03 06:49:55;;;;;;;3.30;1.43;;;11.50;99.90;;;;;;5006575;28;20697;-84
2024/04/03 06:52:23;;;;;;;4.90;1.93;;;11.60;99.90;;;;;;5015667;28;20208;-85
2024/04/03 06:54:49;;;;;;;4.93;1.40;;;11.60;99.90;;;;;;5015213;28;20179;-85
2024/04/03 06:57:15;;;;;;;2.30;1.17;;;11.60;99.90;;;;;;5014204;28;20209;-85
2024/04/03 06:59:41;;;;;;;3.03;1.70;;;11.50;99.90;;;;;;5015159;28;20189;-85
2024/04/03 07:02:06;;;;;;;5.70;1.67;;;11.50;99.90;;;;;;5014507;28;20179;-83
2024/04/03 07:04:32;;;;;;;3.40;1.70;;;11.60;99.90;;;;;;5047538;28;21273;-82
2024/04/03 07:07:01;;;;;;;3.67;1.70;;;11.60;99.90;;;;;;4996126;28;20305;-82
2024/04/03 07:09:26;;;;;;;2.67;1.50;;;11.60;99.90;;;;;;4995256;28;20175;-85
2024/04/03 07:11:52;;;;;;;2.67;1.50;;;11.70;99.90;;;;;;4994907;28;20214;-83
2024/04/03 07:14:18;;;;;;;3.57;1.87;;;11.70;99.90;;;;;;5001734;28;20174;-84
2024/04/03 07:16:47;;;;;;;3.67;1.60;;;11.80;99.90;;;;;;5014735;28;20179;-84
2024/04/03 07:19:12;;;;;;;4.47;1.87;;;11.90;99.90;;;;;;5003661;28;20179;-85
2024/04/03 07:21:40;;;;;;;4.40;1.33;;;11.90;99.90;;;;;;5013671;28;20651;-82
2024/04/03 07:24:07;;;;;;;4.30;1.87;;;11.90;99.90;;;;;;5019081;28;20176;-85
2024/04/03 07:26:33;;;;;;;2.77;1.20;;;12.00;99.90;;;;;;5018084;28;20179;-84
2024/04/03 07:28:58;;;;;;;2.97;1.43;;;12.10;99.90;;;;;;5010268;28;20581;-84
2024/04/03 07:31:24;;;;;;;2.43;1.37;;;12.20;99.90;;;;;;5014716;28;20206;-83
2024/04/03 07:33:51;;;;;;;3.20;1.53;;;12.20;99.90;;;;;;5017206;28;20532;-84
2024/04/03 07:36:19;;;;;;;5.13;1.50;;;12.20;99.90;;;;;;5013559;28;20178;-84
2024/04/03 07:38:44;;;;;;;2.73;1.53;;;12.20;99.90;;;;;;5015070;28;20170;-84
2024/04/03 07:41:10;;;;;;;3.63;1.80;;;12.20;99.90;;;;;;5013975;28;20511;-83
2024/04/03 07:43:36;;;;;;;3.83;1.30;;;12.20;99.90;;;;;;5020443;28;20179;-84
2024/04/03 07:46:01;;;;;;;3.03;1.60;;;12.10;99.90;;;;;;5015415;28;20175;-84
2024/04/03 07:48:27;;;;;;;2.97;1.67;;;12.10;99.90;;;;;;5014600;28;20176;-84
2024/04/03 07:51:00;;;;;;;3.27;1.33;;;12.10;99.90;;;;;;5015514;28;20177;-83
2024/04/03 07:53:26;;;;;;;3.20;1.40;;;12.20;99.90;;;;;;5004893;28;20550;-84
2024/04/03 07:55:52;;;;;;;4.07;1.40;;;12.20;99.90;;;;;;5012622;28;20175;-84
2024/04/03 07:58:18;;;;;;;2.33;1.10;;;12.20;99.90;;;;;;5016632;28;20272;-83
2024/04/03 08:00:44;;;;;;;2.63;1.40;;;12.20;99.90;;;;;;5018380;28;20187;-84
2024/04/03 08:03:10;;;;;;;2.40;1.13;;;12.20;99.90;;;;;;5008873;28;20234;-83
2024/04/03 08:05:36;;;;;;;1.57;1.30;;;12.10;99.90;;;;;;5012852;28;20601;-82
2024/04/03 08:08:02;;;;;;;3.47;1.20;;;12.20;99.90;;;;;;5006514;28;20254;-82
2024/04/03 08:10:27;;;;;;;1.13;0.90;;;12.10;99.90;;;;;;5009361;28;20273;-84
2024/04/03 08:12:54;;;;;;;4.23;1.53;;;12.20;99.90;;;;;;5011677;28;20226;-85
2024/04/03 08:15:21;;;;;;;2.00;1.03;;;12.10;99.90;;;;;;5017409;28;20178;-83
2024/04/03 08:17:47;;;;;;;2.40;1.20;;;12.10;99.90;;;;;;5014832;28;20539;-84
2024/04/03 08:20:13;;;;;;;2.47;1.57;;;12.10;99.90;;;;;;5045604;28;20175;-84
2024/04/03 08:22:38;;;;;;;1.20;0.90;;;12.20;99.90;;;;;;5012299;28;20182;-83
2024/04/03 08:25:04;;;;;;;1.93;1.17;;;12.10;99.90;;;;;;5012937;28;20213;-80
2024/04/03 08:27:33;;;;;;;1.80;1.10;;;12.30;99.90;;;;;;5013457;28;20636;-81
2024/04/03 08:30:01;;;;;;;2.07;1.30;;;12.40;99.90;;;;;;5014949;28;20210;-83
2024/04/03 08:32:26;;;;;;;2.37;1.27;;;12.30;99.90;;;;;;5012013;28;20218;-83
2024/04/03 08:34:52;;;;;;;2.37;1.20;;;12.20;99.90;;;;;;5013236;28;20210;-85
2024/04/03 08:37:19;;;;;;;1.90;1.20;;;12.20;99.90;;;;;;5020666;28;20188;-83
2024/04/03 08:39:46;;;;;;;3.73;1.40;;;12.20;99.90;;;;;;5021962;28;20186;-83
2024/04/03 08:42:12;;;;;;;3.20;1.30;;;12.30;99.90;;;;;;5028814;28;20182;-81
2024/04/03 08:44:41;;;;;;;2.90;1.20;;;12.50;99.90;;;;;;5020106;28;20183;-84
2024/04/03 08:47:07;;;;;;;2.60;1.10;;;12.40;99.90;;;;;;5017118;28;20268;-81
2024/04/03 08:49:35;;;;;;;2.27;1.20;;;12.50;99.90;;;;;;5024906;28;20258;-81
2024/04/03 08:52:12;;;;;;;3.13;1.17;;;12.50;99.90;;;;;;5011671;28;20198;-80
2024/04/03 08:54:42;;;;;;;2.03;1.10;;;12.40;99.90;;;;;;5008851;28;20186;-81
2024/04/03 08:57:08;;;;;;;2.13;1.00;;;12.50;99.90;;;;;;5022386;28;20176;-78
2024/04/03 08:59:38;;;;;;;3.47;1.00;;;12.50;99.90;;;;;;5000323;28;20175;-79
2024/04/03 09:02:04;;;;;;;2.97;1.00;;;12.40;99.90;;;;;;5007646;28;20171;-77
2024/04/03 09:04:31;;;;;;;2.10;0.90;;;12.40;99.90;;;;;;5023902;28;20192;-80
2024/04/03 09:06:56;;;;;;;2.70;0.90;;;12.30;99.90;;;;;;5037278;28;20249;-80
2024/04/03 09:09:26;;;;;;;1.70;1.00;;;12.20;99.90;;;;;;5013097;28;20216;-80
2024/04/03 09:12:04;;;;;;;1.17;0.80;;;12.10;99.90;;;;;;5023615;28;20291;-84
2024/04/03 09:14:30;;;;;;;5.30;1.10;;;12.10;99.90;;;;;;5017175;28;20201;-80
2024/04/03 09:17:03;;;;;;;1.40;0.90;;;12.10;99.90;;;;;;5018434;28;20176;-82
2024/04/03 09:19:30;;;;;;;1.20;0.83;;;12.00;99.90;;;;;;5007454;28;20403;-80
2024/04/03 09:21:59;;;;;;;2.53;1.20;;;12.10;99.90;;;;;;5016651;28;20646;-81
2024/04/03 09:24:25;;;;;;;1.73;0.90;;;12.10;99.90;;;;;;5010265;28;20165;-81
2024/04/03 09:26:52;;;;;;;1.40;1.00;;;12.10;99.90;;;;;;5019371;28;20584;-80
2024/04/03 09:29:18;;;;;;;1.77;0.83;;;12.10;99.90;;;;;;5025272;28;20180;-83
2024/04/03 09:31:45;;;;;;;1.50;1.10;;;12.10;99.90;;;;;;5026364;28;20665;-81
2024/04/03 09:34:11;;;;;;;2.40;1.30;;;12.10;99.90;;;;;;5033684;28;20277;-81
2024/04/03 09:36:38;;;;;;;0.93;0.90;;;12.10;99.90;;;;;;5034866;28;20193;-81
2024/04/03 09:39:04;;;;;;;2.27;1.20;;;12.10;99.90;;;;;;5035749;28;20245;-81
2024/04/03 09:41:32;;;;;;;3.70;0.90;;;12.20;99.90;;;;;;5034501;28;20179;-82
2024/04/03 09:44:00;;;;;;;1.40;0.90;;;12.20;99.90;;;;;;5034467;28;20177;-80
2024/04/03 09:46:43;;;;;;;2.10;1.23;;;12.20;99.90;;;;;;5035712;28;20179;-81
2024/04/03 09:49:12;;;;;;;2.53;1.00;;;12.20;99.90;;;;;;5035388;28;20606;-81
2024/04/03 09:51:39;;;;;;;1.63;0.90;;;12.20;99.90;;;;;;5036401;28;20548;-80
2024/04/03 09:54:07;;;;;;;4.03;1.00;;;12.30;99.90;;;;;;5028565;28;20259;-83
2024/04/03 09:56:33;;;;;;;1.70;1.17;;;12.30;99.90;;;;;;5017106;28;20288;-82
2024/04/03 09:59:02;;;;;;;3.73;1.10;;;12.30;99.90;;;;;;5026847;28;20179;-82
2024/04/03 10:01:31;;;;;;;1.10;1.00;;;12.30;99.90;;;;;;5014966;28;20646;-83
2024/04/03 10:04:08;;;;;;;4.27;1.10;;;12.30;99.90;;;;;;5025531;28;20195;-81
2024/04/03 10:06:41;;;;;;;1.93;1.10;;;12.40;99.90;;;;;;5013203;28;20202;-80
2024/04/03 10:09:18;;;;;;;5.07;1.27;;;12.40;99.90;;;;;;5013284;28;20190;-81
2024/04/03 10:12:17;;;;;;;2.00;1.40;;;12.40;99.90;;;;;;5012601;28;20227;-80
2024/04/03 10:14:42;;;;;;;3.00;1.20;;;12.50;99.90;;;;;;5015542;28;20604;-80
2024/04/03 10:17:15;;;;;;;4.00;1.10;;;12.50;99.90;;;;;;5012688;28;20693;-83
2024/04/03 10:19:42;;;;;;;1.60;1.20;;;12.50;99.90;;;;;;5013975;28;20182;-81
2024/04/03 10:22:14;;;;;;;3.37;1.30;;;12.50;99.90;;;;;;5013696;28;20197;-81
2024/04/03 10:24:43;;;;;;;2.40;1.30;;;12.50;99.90;;;;;;5012862;28;20174;-85
2024/04/03 10:27:10;;;;;;;2.30;1.40;;;12.50;99.90;;;;;;5013471;28;20179;-80
2024/04/03 10:29:37;;;;;;;1.97;1.20;;;12.50;99.90;;;;;;5014096;28;20172;-81
2024/04/03 10:32:04;;;;;;;2.97;1.30;;;12.60;99.90;;;;;;5013584;28;20201;-80
2024/04/03 10:34:32;;;;;;;2.73;1.60;;;12.80;99.90;;;;;;5012910;28;20180;-83
2024/04/03 10:36:57;;;;;;;1.73;1.23;;;12.90;99.90;;;;;;5014114;28;20181;-80
2024/04/03 10:39:23;;;;;;;2.67;1.30;;;13.00;99.90;;;;;;5013519;28;20269;-81
2024/04/03 10:41:59;;;;;;;1.80;1.20;;;13.00;99.90;;;;;;5014710;28;20178;-80
2024/04/03 10:44:24;;;;;;;3.57;1.27;;;13.10;99.90;;;;;;5014958;28;20170;-81
2024/04/03 10:46:50;;;;;;;3.53;1.40;;;13.20;99.90;;;;;;5015438;28;20201;-81
2024/04/03 10:49:16;;;;;;;2.83;1.30;;;13.20;99.90;;;;;;5014188;28;20172;-81
2024/04/03 10:51:43;;;;;;;2.10;1.23;;;13.30;99.90;;;;;;5013457;28;20215;-81
2024/04/03 10:54:12;;;;;;;2.30;1.20;;;13.40;99.90;;;;;;5012746;28;20222;-80
2024/04/03 10:56:38;;;;;;;2.80;1.17;;;13.40;99.90;;;;;;5013916;28;20177;-81
2024/04/03 10:59:03;;;;;;;1.63;1.00;;;13.40;99.90;;;;;;5013047;28;20538;-82
2024/04/03 11:01:30;;;;;;;1.67;1.00;;;13.40;99.90;;;;;;5014688;28;20172;-80
2024/04/03 11:03:56;;;;;;;3.07;1.23;;;13.50;99.90;;;;;;4974634;28;1157155;-85
2024/04/03 11:06:23;;;;;;;2.57;1.20;;;13.60;99.90;;;;;;5014848;28;20228;-81
2024/04/03 11:08:49;;;;;;;5.40;1.67;;;13.50;99.90;;;;;;5014545;28;20193;-81
2024/04/03 11:11:15;;;;;;;3.37;1.97;;;13.60;99.90;;;;;;5014038;28;20185;-82
2024/04/03 11:13:48;;;;;;;3.97;1.50;;;13.60;99.90;;;;;;5013751;28;20208;-83
2024/04/03 11:16:13;;;;;;;2.23;1.30;;;13.70;99.90;;;;;;5028317;28;20189;-81
2024/04/03 11:18:43;;;;;;;2.33;1.33;;;13.80;99.90;;;;;;5031754;28;20179;-82
2024/04/03 11:21:09;;;;;;;2.37;1.17;;;13.80;99.90;;;;;;5013976;28;20209;-82
2024/04/03 11:23:40;;;;;;;3.23;1.30;;;13.90;99.90;;;;;;5014938;28;20172;-82
2024/04/03 11:26:06;;;;;;;3.37;1.27;;;14.00;99.90;;;;;;5014162;28;20186;-82
2024/04/03 11:28:33;;;;;;;2.27;1.17;;;14.10;99.90;;;;;;5013993;28;20174;-80
2024/04/03 11:30:59;;;;;;;2.47;1.20;;;14.30;99.90;;;;;;5017152;28;20189;-82
2024/04/03 11:33:25;;;;;;;2.67;1.30;;;14.40;99.90;;;;;;5015385;28;20198;-81
2024/04/03 11:35:50;;;;;;;1.43;1.00;;;14.40;97.00;;;;;;5014801;28;20167;-81
2024/04/03 11:38:16;;;;;;;1.60;1.10;;;14.40;94.70;;;;;;5013538;28;20186;-81
2024/04/03 11:40:42;;;;;;;2.63;1.20;;;14.60;90.80;;;;;;5013892;28;20193;-82
2024/04/03 11:43:08;;;;;;;2.23;1.30;;;14.70;82.30;;;;;;5013223;28;20281;-82
2024/04/03 11:45:35;;;;;;;6.67;1.20;;;14.90;67.40;;;;;;5012728;28;20184;-83
2024/04/03 11:48:01;;;;;;;2.53;1.00;;;15.00;56.30;;;;;;5011955;28;20181;-85
2024/04/03 11:50:26;;;;;;;3.17;1.10;;;15.10;45.60;;;;;;5013159;28;20328;-80
2024/04/03 11:52:52;;;;;;;3.90;1.47;;;15.30;43.20;;;;;;5014429;28;20202;-80
2024/04/03 11:55:18;;;;;;;4.07;1.37;;;15.30;23.50;;;;;;5033664;28;20179;-80
2024/04/03 11:57:43;;;;;;;4.93;1.57;;;15.30;22.10;;;;;;5031099;28;20185;-80
2024/04/03 12:00:13;;;;;;;3.47;1.17;;;15.10;28.40;;;;;;5033130;28;20274;-82
2024/04/03 12:02:39;;;;;;;4.00;1.33;;;15.00;33.90;;;;;;5017197;28;20657;-80
2024/04/03 12:05:05;;;;;;;3.33;1.13;;;15.00;35.80;;;;;;5028288;28;20193;-80
2024/04/03 12:07:31;;;;;;;5.93;1.30;;;15.00;28.80;;;;;;5016856;28;20178;-82
2024/04/03 12:10:06;;;;;;;5.10;1.43;;;15.20;21.20;;;;;;5024541;28;20245;-80
2024/04/03 12:12:33;;;;;;;3.03;1.43;;;15.20;15.20;;;;;;5029670;28;20347;-80
2024/04/03 12:14:58;;;;;;;4.57;1.50;;;15.20;18.80;;;;;;5021076;28;20175;-81
2024/04/03 12:17:24;;;;;;;4.90;1.43;;;15.20;16.40;;;;;;5029301;28;20174;-86
2024/04/03 12:22:27;;;;;;;5.23;1.30;;;15.40;6.00;;;;;;5032981;28;20255;-79
2024/04/03 12:24:53;;;;;;;4.67;1.43;;;15.50;1.00;;;;;;5026934;28;20217;-84
2024/04/03 12:27:19;;;;;;;5.47;1.57;;;15.70;1.00;;;;;;5026291;28;20594;-82
2024/04/03 12:29:44;;;;;;;3.43;1.27;;;15.60;1.00;;;;;;5013638;28;20214;-80
2024/04/03 12:32:10;;;;;;;6.47;1.93;;;15.50;1.00;;;;;;5017058;28;20675;-81
2024/04/03 12:34:35;;;;;;;5.20;1.33;;;15.50;1.00;;;;;;5029928;28;20669;-80
2024/04/03 12:37:01;;;;;;;3.87;1.20;;;15.50;1.00;;;;;;5032073;28;20612;-81
2024/04/03 12:39:27;;;;;;;3.87;1.23;;;15.50;1.00;;;;;;5032108;28;20624;-82
2024/04/03 12:41:52;;;;;;;8.83;1.40;;;15.60;1.00;;;;;;5032595;28;20565;-80
2024/04/03 12:44:18;;;;;;;4.53;1.20;;;15.70;1.00;;;;;;5015547;28;20179;-82
2024/04/03 12:46:45;;;;;;;3.60;1.13;;;15.80;1.00;;;;;;5033171;28;20178;-80
2024/04/03 12:49:12;;;;;;;3.40;1.03;;;15.80;1.00;;;;;;5033353;28;20202;-80
2024/04/03 12:51:37;;;;;;;6.57;1.80;;;15.80;1.00;;;;;;5031568;28;20206;-80